createdAt,value
2023-03-27T16:47:54.732Z,4.33
2023-03-27T16:48:08.435Z,4.37
2023-03-27T16:48:21.334Z,4.42
2023-03-27T16:48:34.002Z,4.45
2023-03-27T16:48:46.654Z,4.49
2023-03-27T16:49:00.466Z,4.52
2023-03-27T16:49:13.242Z,4.57
2023-03-27T16:49:26.311Z,4.60
2023-03-27T16:49:38.964Z,4.62
2023-03-27T16:50:07.998Z,4.66
2023-03-27T16:50:29.137Z,4.70
2023-03-27T16:50:42.038Z,4.74
2023-03-27T16:50:56.071Z,4.77
2023-03-27T16:51:08.751Z,4.78
2023-03-27T16:51:23.842Z,4.78
2023-03-27T16:51:37.497Z,4.79
2023-03-27T16:51:50.469Z,4.80
2023-03-27T16:52:03.368Z,4.79
2023-03-27T16:52:16.255Z,4.78
2023-03-27T16:52:28.997Z,4.78
2023-03-27T16:52:42.566Z,4.76
2023-03-27T16:52:55.475Z,4.78
2023-03-27T16:53:08.068Z,4.78
2023-03-27T16:53:20.784Z,4.79
2023-03-27T16:53:33.341Z,4.81
2023-03-27T16:53:46.090Z,4.80
2023-03-27T16:53:59.712Z,4.84
2023-03-27T16:54:12.608Z,4.83
2023-03-27T16:54:25.718Z,4.83
2023-03-27T16:54:38.376Z,4.82
2023-03-27T16:54:51.153Z,4.82
2023-03-27T16:55:07.166Z,4.80
2023-03-27T16:55:21.495Z,4.79
2023-03-27T16:55:34.729Z,4.78
2023-03-27T16:55:48.404Z,4.79
2023-03-27T16:56:01.490Z,4.77
2023-03-27T16:56:14.310Z,4.76
2023-03-27T16:56:27.077Z,4.75
2023-03-27T16:56:40.851Z,4.75
2023-03-27T16:56:53.617Z,4.75
2023-03-27T16:57:06.501Z,4.74
2023-03-27T16:57:19.246Z,4.72
2023-03-27T16:57:32.020Z,4.70
2023-03-27T16:57:46.727Z,4.69
2023-03-27T16:57:59.396Z,4.68
2023-03-27T16:58:12.025Z,4.67
2023-03-27T16:58:24.635Z,4.66
2023-03-27T16:58:37.267Z,4.65
2023-03-27T16:58:49.854Z,4.64
2023-03-27T16:59:04.687Z,4.63
2023-03-27T16:59:17.567Z,4.61
2023-03-27T16:59:30.319Z,4.60
2023-03-27T16:59:42.935Z,4.59
2023-03-27T16:59:55.905Z,4.59
2023-03-27T17:00:10.049Z,4.62
2023-03-27T17:00:24.450Z,4.63
2023-03-27T17:00:37.070Z,4.62
2023-03-27T17:00:49.702Z,4.63
2023-03-27T17:01:02.390Z,4.61
2023-03-27T17:01:15.095Z,4.61
2023-03-27T17:01:28.911Z,4.63
2023-03-27T17:01:41.748Z,4.64
2023-03-27T17:01:54.824Z,4.61
2023-03-27T17:02:07.576Z,4.60
2023-03-27T17:02:20.360Z,4.59
2023-03-27T17:02:34.794Z,4.59
2023-03-27T17:02:47.818Z,4.61
2023-03-27T17:03:03.195Z,4.61
2023-03-27T17:03:16.464Z,4.60
2023-03-27T17:03:29.062Z,4.59
2023-03-27T17:03:42.262Z,4.58
2023-03-27T17:03:55.878Z,4.57
2023-03-27T17:04:08.716Z,4.60
2023-03-27T17:04:21.973Z,4.63
2023-03-27T17:04:34.593Z,4.61
2023-03-27T17:04:47.266Z,4.60
2023-03-27T17:04:59.923Z,4.59
2023-03-27T17:05:14.842Z,4.57
2023-03-27T17:05:33.858Z,4.56
2023-03-27T17:05:46.670Z,4.57
2023-03-27T17:06:00.031Z,4.58
2023-03-27T17:06:15.252Z,4.56
2023-03-27T17:06:27.873Z,4.55
2023-03-27T17:06:40.917Z,4.54
2023-03-27T17:06:53.731Z,4.55
2023-03-27T17:07:06.509Z,4.53
2023-03-27T17:07:20.389Z,4.50
2023-03-27T17:07:33.109Z,4.47
2023-03-27T17:07:46.972Z,4.45
2023-03-27T17:07:59.718Z,4.43
2023-03-27T17:08:13.211Z,4.42
2023-03-27T17:08:25.881Z,4.41
2023-03-27T17:08:39.734Z,4.37
2023-03-27T17:08:55.448Z,4.38
2023-03-27T17:09:09.638Z,4.36
2023-03-27T17:09:22.762Z,4.37
2023-03-27T17:09:37.259Z,4.35
2023-03-27T17:09:50.004Z,4.33
2023-03-27T17:10:03.467Z,4.30
2023-03-27T17:10:16.910Z,4.32
2023-03-27T17:10:33.274Z,4.29
2023-03-27T17:10:46.102Z,4.27
2023-03-27T17:11:03.022Z,4.26
2023-03-27T17:11:15.806Z,4.26
2023-03-27T17:11:28.428Z,4.24
2023-03-27T17:11:42.489Z,4.22
2023-03-27T17:11:55.353Z,4.21
2023-03-27T17:12:09.817Z,4.19
2023-03-27T17:12:22.422Z,4.20
2023-03-27T17:12:35.146Z,4.21
2023-03-27T17:12:47.921Z,4.23
2023-03-27T17:13:01.845Z,4.22
2023-03-27T17:13:14.602Z,4.20
2023-03-27T17:13:27.365Z,4.18
2023-03-27T17:13:43.382Z,4.18
2023-03-27T17:13:56.441Z,4.17
2023-03-27T17:14:10.547Z,4.14
2023-03-27T17:14:23.451Z,4.13
2023-03-27T17:14:36.214Z,4.13
2023-03-27T17:14:48.793Z,4.12
2023-03-27T17:15:01.448Z,4.11
2023-03-27T17:15:16.777Z,4.12
2023-03-27T17:15:30.694Z,4.07
2023-03-27T17:15:43.466Z,4.05
2023-03-27T17:15:56.338Z,4.04
2023-03-27T17:16:09.304Z,4.01
2023-03-27T17:16:22.073Z,4.03
2023-03-27T17:16:35.931Z,4.03
2023-03-27T17:16:49.056Z,4.03
2023-03-27T17:17:01.847Z,4.02
2023-03-27T17:17:14.456Z,4.03
2023-03-27T17:17:27.623Z,4.04
2023-03-27T17:17:40.364Z,4.02
2023-03-27T17:17:54.292Z,4.00
2023-03-27T17:18:08.279Z,3.99
2023-03-27T17:18:21.081Z,3.97
2023-03-27T17:18:33.694Z,3.95
2023-03-27T17:18:46.506Z,3.99
2023-03-27T17:19:00.223Z,4.01
2023-03-27T17:19:12.992Z,3.98
2023-03-27T17:19:25.776Z,3.96
2023-03-27T17:19:38.545Z,3.94
2023-03-27T17:19:51.156Z,3.94
2023-03-27T17:20:07.902Z,3.93
2023-03-27T17:20:20.670Z,3.92
2023-03-27T17:20:34.713Z,3.89
2023-03-27T17:20:47.407Z,3.89
2023-03-27T17:20:59.998Z,3.90
2023-03-27T17:21:13.727Z,3.92
2023-03-27T17:21:27.646Z,3.92
2023-03-27T17:21:40.412Z,3.94
2023-03-27T17:21:53.178Z,3.95
2023-03-27T17:22:05.946Z,3.92
2023-03-27T17:22:18.710Z,3.88
2023-03-27T17:22:31.475Z,3.87
2023-03-27T17:22:45.742Z,3.89
2023-03-27T17:22:58.380Z,3.91
2023-03-27T17:23:11.441Z,3.90
2023-03-27T17:23:24.557Z,3.87
2023-03-27T17:23:37.211Z,3.85
2023-03-27T17:23:52.841Z,3.84
2023-03-27T17:24:05.754Z,3.83
2023-03-27T17:24:19.911Z,3.83
2023-03-27T17:24:45.732Z,3.83
2023-03-27T17:25:09.976Z,3.82
2023-03-27T17:25:23.547Z,3.81
2023-03-27T17:25:36.675Z,3.82
2023-03-27T17:25:50.102Z,3.82
2023-03-27T17:26:04.352Z,3.82
2023-03-27T17:26:24.072Z,3.81
2023-03-27T17:26:38.164Z,3.82
2023-03-27T17:26:50.924Z,3.82
2023-03-27T17:27:04.223Z,3.81
2023-03-27T17:27:18.591Z,3.82
2023-03-27T17:27:31.541Z,3.85
2023-03-27T17:27:45.152Z,3.86
2023-03-27T17:27:57.792Z,3.85
2023-03-27T17:28:10.571Z,3.85
2023-03-27T17:28:23.283Z,3.85
2023-03-27T17:28:36.378Z,3.83
2023-03-27T17:28:49.134Z,3.83
2023-03-27T17:29:03.338Z,3.81
2023-03-27T17:29:18.017Z,3.81
2023-03-27T17:29:31.477Z,3.79
2023-03-27T17:29:44.336Z,3.78
2023-03-27T17:29:57.639Z,3.77
2023-03-27T17:30:11.157Z,3.75
2023-03-27T17:30:38.067Z,3.75
2023-03-27T17:31:04.041Z,3.77
2023-03-27T17:31:18.954Z,3.76
2023-03-27T17:31:33.198Z,3.75
2023-03-27T17:31:46.196Z,3.75
2023-03-27T17:32:01.098Z,3.73
2023-03-27T17:32:13.752Z,3.72
2023-03-27T17:32:26.964Z,3.70
2023-03-27T17:32:39.968Z,3.70
2023-03-27T17:32:53.081Z,3.70
2023-03-27T17:33:05.857Z,3.70
2023-03-27T17:33:20.913Z,3.67
2023-03-27T17:33:34.030Z,3.64
2023-03-27T17:33:46.956Z,3.64
2023-03-27T17:34:00.268Z,3.62
2023-03-27T17:34:13.215Z,3.63
2023-03-27T17:34:26.033Z,3.61
2023-03-27T17:34:40.066Z,3.60
2023-03-27T17:34:52.862Z,3.58
2023-03-27T17:35:06.360Z,3.58
2023-03-27T17:35:19.047Z,3.57
2023-03-27T17:35:31.986Z,3.57
2023-03-27T17:35:44.795Z,3.56
2023-03-27T17:35:58.684Z,3.56
2023-03-27T17:36:14.469Z,3.55
2023-03-27T17:36:39.816Z,3.52
2023-03-27T17:36:56.902Z,3.67
2023-03-27T17:37:12.493Z,3.67
2023-03-27T17:37:25.975Z,3.65
2023-03-27T17:37:38.634Z,3.63
2023-03-27T17:37:51.371Z,3.63
2023-03-27T17:38:03.972Z,3.62
2023-03-27T17:38:19.105Z,3.60
2023-03-27T17:38:32.688Z,3.59
2023-03-27T17:38:45.753Z,3.57
2023-03-27T17:39:01.392Z,3.55
2023-03-27T17:39:14.112Z,3.54
2023-03-27T17:39:27.047Z,3.53
2023-03-27T17:39:39.693Z,3.55
2023-03-27T17:39:53.358Z,3.54
2023-03-27T17:40:09.778Z,3.49
2023-03-27T17:40:22.574Z,3.53
2023-03-27T17:40:39.409Z,3.52
2023-03-27T17:40:52.373Z,3.52
2023-03-27T17:41:06.998Z,3.50
2023-03-27T17:41:20.344Z,3.48
2023-03-27T17:41:33.055Z,3.48
2023-03-27T17:41:45.940Z,3.47
2023-03-27T17:41:58.562Z,3.45
2023-03-27T17:42:11.243Z,3.46
2023-03-27T17:42:24.975Z,3.46
2023-03-27T17:42:37.690Z,3.42
2023-03-27T17:42:50.468Z,3.41
2023-03-27T17:43:03.090Z,3.40
2023-03-27T17:43:15.858Z,3.40
2023-03-27T17:43:28.566Z,3.39
2023-03-27T17:43:42.279Z,3.41
2023-03-27T17:43:54.949Z,3.39
2023-03-27T17:44:10.529Z,3.41
2023-03-27T17:44:23.128Z,3.40
2023-03-27T17:44:38.096Z,3.40
2023-03-27T17:44:50.845Z,3.38
2023-03-27T17:45:05.439Z,3.36
2023-03-27T17:45:18.237Z,3.37
2023-03-27T17:45:30.976Z,3.37
2023-03-27T17:45:43.941Z,3.37
2023-03-27T17:45:56.910Z,3.37
2023-03-27T17:46:13.828Z,3.37
2023-03-27T17:46:26.799Z,3.40
2023-03-27T17:46:39.678Z,3.39
2023-03-27T17:46:52.388Z,3.40
2023-03-27T17:47:06.328Z,3.43
2023-03-27T17:47:19.071Z,3.58
2023-03-27T17:47:32.692Z,3.54
2023-03-27T17:47:45.867Z,3.52
2023-03-27T17:47:58.567Z,3.49
2023-03-27T17:48:12.030Z,3.45
2023-03-27T17:48:26.152Z,3.41
2023-03-27T17:48:38.907Z,3.39
2023-03-27T17:48:52.527Z,3.37
2023-03-27T17:49:05.570Z,3.33
2023-03-27T17:49:18.397Z,3.33
2023-03-27T17:49:31.922Z,3.32
2023-03-27T17:49:45.249Z,3.28
2023-03-27T17:49:58.091Z,3.26
2023-03-27T17:50:12.055Z,3.26
2023-03-27T17:50:24.691Z,3.25
2023-03-27T17:50:37.655Z,3.24
2023-03-27T17:51:01.544Z,3.23
2023-03-27T17:51:21.604Z,3.20
2023-03-27T17:51:35.705Z,3.19
2023-03-27T17:51:48.465Z,3.17
2023-03-27T17:52:02.886Z,3.19
2023-03-27T17:52:15.881Z,3.18
2023-03-27T17:52:28.675Z,3.18
2023-03-27T17:52:42.471Z,3.17
2023-03-27T17:52:55.127Z,3.16
2023-03-27T17:53:07.978Z,3.15
2023-03-27T17:53:21.067Z,3.15
2023-03-27T17:53:33.844Z,3.14
2023-03-27T17:53:46.777Z,3.14
2023-03-27T17:54:00.671Z,3.12
2023-03-27T17:54:13.553Z,3.11
2023-03-27T17:54:26.386Z,3.09
2023-03-27T17:54:39.287Z,3.08
2023-03-27T17:54:52.104Z,3.07
2023-03-27T17:55:05.715Z,3.05
2023-03-27T17:55:18.904Z,3.06
2023-03-27T17:55:32.693Z,3.05
2023-03-27T17:55:45.559Z,3.04
2023-03-27T17:55:59.366Z,3.03
2023-03-27T17:56:12.294Z,3.04
2023-03-27T17:56:26.143Z,3.03
2023-03-27T17:56:40.965Z,3.02
2023-03-27T17:56:53.629Z,3.01
2023-03-27T17:57:06.786Z,3.00
2023-03-27T17:57:19.736Z,2.99
2023-03-27T17:57:33.579Z,2.99
2023-03-27T17:57:49.201Z,2.98
2023-03-27T17:58:09.955Z,3.00
2023-03-27T17:58:23.373Z,3.00
2023-03-27T17:58:37.192Z,3.01
2023-03-27T17:58:50.934Z,3.01
2023-03-27T17:59:05.940Z,3.00
2023-03-27T17:59:19.028Z,2.99
2023-03-27T17:59:32.025Z,2.98
2023-03-27T17:59:46.434Z,2.97
2023-03-27T17:59:59.254Z,2.97
2023-03-27T18:00:15.210Z,2.95
2023-03-27T18:00:28.041Z,2.95
2023-03-27T18:00:41.520Z,2.95
2023-03-27T18:00:55.577Z,2.95
2023-03-27T18:01:17.072Z,2.93
2023-03-27T18:01:31.635Z,2.93
2023-03-27T18:01:45.488Z,2.95
2023-03-27T18:01:58.764Z,2.93
2023-03-27T18:02:16.129Z,2.95
2023-03-27T18:02:29.162Z,2.93
2023-03-27T18:02:43.899Z,2.93
2023-03-27T18:02:57.772Z,2.93
2023-03-27T18:03:10.874Z,2.92
2023-03-27T18:03:25.237Z,2.92
2023-03-27T18:03:38.114Z,2.92
2023-03-27T18:03:51.699Z,2.91
2023-03-27T18:04:06.007Z,2.90
2023-03-27T18:04:19.002Z,2.90
2023-03-27T18:04:33.172Z,2.88
2023-03-27T18:04:48.769Z,2.88
2023-03-27T18:05:01.437Z,2.89
2023-03-27T18:05:15.902Z,2.87
2023-03-27T18:05:28.976Z,2.87
2023-03-27T18:05:43.237Z,2.85
2023-03-27T18:05:56.138Z,2.87
2023-03-27T18:06:09.075Z,2.85
2023-03-27T18:06:22.903Z,2.85
2023-03-27T18:06:36.625Z,2.85
2023-03-27T18:06:49.241Z,2.83
2023-03-27T18:07:02.098Z,2.82
2023-03-27T18:07:14.832Z,2.83
2023-03-27T18:07:27.886Z,2.82
2023-03-27T18:07:42.362Z,2.82
2023-03-27T18:07:55.382Z,2.80
2023-03-27T18:08:10.290Z,2.80
2023-03-27T18:08:23.097Z,2.79
2023-03-27T18:08:35.993Z,2.78
2023-03-27T18:08:48.805Z,2.77
2023-03-27T18:09:01.534Z,2.77
2023-03-27T18:09:15.495Z,2.76
2023-03-27T18:09:28.255Z,2.76
2023-03-27T18:09:41.688Z,2.75
2023-03-27T18:09:54.303Z,2.75
2023-03-27T18:10:10.058Z,2.74
2023-03-27T18:10:23.262Z,2.72
2023-03-27T18:10:36.475Z,2.72
2023-03-27T18:10:51.477Z,2.71
2023-03-27T18:11:09.192Z,2.69
2023-03-27T18:11:22.089Z,2.70
2023-03-27T18:11:34.908Z,2.69
2023-03-27T18:11:47.551Z,2.68
2023-03-27T18:12:00.232Z,2.69
2023-03-27T18:12:14.302Z,2.67
2023-03-27T18:12:27.293Z,2.67
2023-03-27T18:12:40.289Z,2.64
2023-03-27T18:12:52.939Z,2.63
2023-03-27T18:13:05.696Z,2.63
2023-03-27T18:13:19.793Z,2.62
2023-03-27T18:13:32.581Z,2.61
2023-03-27T18:13:51.252Z,2.61
2023-03-27T18:14:04.147Z,2.61
2023-03-27T18:14:17.561Z,2.60
2023-03-27T18:14:31.186Z,2.62
2023-03-27T18:14:43.899Z,2.63
2023-03-27T18:14:57.445Z,2.62
2023-03-27T18:15:10.689Z,2.61
2023-03-27T18:15:23.714Z,2.63
2023-03-27T18:15:36.620Z,2.61
2023-03-27T18:15:55.402Z,2.58
2023-03-27T18:16:10.738Z,2.60
2023-03-27T18:16:23.723Z,2.60
2023-03-27T18:16:36.930Z,2.59
2023-03-27T18:16:49.810Z,2.59
2023-03-27T18:17:02.585Z,2.58
2023-03-27T18:17:20.852Z,2.59
2023-03-27T18:17:35.545Z,2.57
2023-03-27T18:17:48.450Z,2.58
2023-03-27T18:18:01.451Z,2.57
2023-03-27T18:18:14.108Z,2.56
2023-03-27T18:18:28.289Z,2.56
2023-03-27T18:18:42.153Z,2.56
2023-03-27T18:18:55.747Z,2.56
2023-03-27T18:19:09.334Z,2.54
2023-03-27T18:19:24.114Z,2.55
2023-03-27T18:19:36.905Z,2.52
2023-03-27T18:19:49.730Z,2.53
2023-03-27T18:20:02.588Z,2.52
2023-03-27T18:20:15.780Z,2.52
2023-03-27T18:20:28.417Z,2.51
2023-03-27T18:20:42.898Z,2.51
2023-03-27T18:20:55.689Z,2.49
2023-03-27T18:21:08.625Z,2.48
2023-03-27T18:21:21.711Z,2.48
2023-03-27T18:21:34.549Z,2.48
2023-03-27T18:21:47.448Z,2.47
2023-03-27T18:22:01.875Z,2.48
2023-03-27T18:22:14.656Z,2.46
2023-03-27T18:22:27.883Z,2.45
2023-03-27T18:22:40.881Z,2.44
2023-03-27T18:22:53.652Z,2.43
2023-03-27T18:23:06.786Z,2.43
2023-03-27T18:23:20.855Z,2.43
2023-03-27T18:23:35.107Z,2.41
2023-03-27T18:23:48.090Z,2.40
2023-03-27T18:24:00.772Z,2.40
2023-03-27T18:24:13.340Z,2.39
2023-03-27T18:24:26.263Z,2.40
2023-03-27T18:24:40.516Z,2.39
2023-03-27T18:24:53.350Z,2.38
2023-03-27T18:25:08.709Z,2.36
2023-03-27T18:25:21.442Z,2.35
2023-03-27T18:25:34.362Z,2.35
2023-03-27T18:25:47.235Z,2.34
2023-03-27T18:26:03.678Z,2.32
2023-03-27T18:26:17.761Z,2.31
2023-03-27T18:26:30.720Z,2.31
2023-03-27T18:26:43.526Z,2.29
2023-03-27T18:26:56.231Z,2.27
2023-03-27T18:27:08.885Z,2.27
2023-03-27T18:27:21.665Z,2.27
2023-03-27T18:27:34.692Z,2.26
2023-03-27T18:27:48.260Z,2.25
2023-03-27T18:28:02.115Z,2.23
2023-03-27T18:28:15.046Z,2.23
2023-03-27T18:28:27.681Z,2.23
2023-03-27T18:28:40.413Z,2.23
2023-03-27T18:28:55.259Z,2.21
2023-03-27T18:29:08.218Z,2.22
2023-03-27T18:29:21.272Z,2.22
2023-03-27T18:29:34.465Z,2.20
2023-03-27T18:29:47.284Z,2.20
2023-03-27T18:30:01.618Z,2.19
2023-03-27T18:30:17.564Z,2.17
2023-03-27T18:30:32.211Z,2.16
2023-03-27T18:30:45.070Z,2.17
2023-03-27T18:30:59.210Z,2.15
2023-03-27T18:31:12.803Z,2.14
2023-03-27T18:31:25.905Z,2.15
2023-03-27T18:31:39.704Z,2.14
2023-03-27T18:31:52.420Z,2.12
2023-03-27T18:32:05.246Z,2.12
2023-03-27T18:32:17.877Z,2.10
2023-03-27T18:32:30.694Z,2.10
2023-03-27T18:32:45.196Z,2.09
2023-03-27T18:32:58.350Z,2.08
2023-03-27T18:33:12.402Z,2.07
2023-03-27T18:33:25.294Z,2.07
2023-03-27T18:33:39.595Z,2.06
2023-03-27T18:33:52.465Z,2.05
2023-03-27T18:34:05.172Z,2.04
2023-03-27T18:34:18.983Z,2.05
2023-03-27T18:34:31.778Z,2.04
2023-03-27T18:34:45.346Z,2.02
2023-03-27T18:34:58.122Z,2.03
2023-03-27T18:35:13.980Z,2.02
2023-03-27T18:35:26.644Z,2.02
2023-03-27T18:35:42.688Z,2.02
2023-03-27T18:35:57.310Z,2.00
2023-03-27T18:36:11.594Z,1.99
2023-03-27T18:36:24.782Z,1.98
2023-03-27T18:36:37.671Z,1.98
2023-03-27T18:36:51.817Z,1.99
2023-03-27T18:37:04.624Z,1.98
2023-03-27T18:37:18.391Z,1.96
2023-03-27T18:37:30.956Z,1.96
2023-03-27T18:37:44.781Z,1.97
2023-03-27T18:37:58.008Z,1.95
2023-03-27T18:38:11.747Z,1.95
2023-03-27T18:38:26.452Z,1.95
2023-03-27T18:38:40.178Z,1.95
2023-03-27T18:38:53.079Z,1.94
2023-03-27T18:39:06.730Z,1.93
2023-03-27T18:39:19.675Z,1.93
2023-03-27T18:39:36.460Z,1.94
2023-03-27T18:39:49.098Z,1.93
2023-03-27T18:40:01.860Z,1.92
2023-03-27T18:40:16.724Z,1.91
2023-03-27T18:40:32.734Z,1.91
2023-03-27T18:40:48.055Z,1.91
2023-03-27T18:41:01.707Z,1.91
2023-03-27T18:41:15.610Z,1.90
2023-03-27T18:41:28.242Z,1.87
2023-03-27T18:41:41.220Z,1.88
2023-03-27T18:41:54.994Z,1.88
2023-03-27T18:42:08.798Z,1.87
2023-03-27T18:42:22.667Z,1.86
2023-03-27T18:42:35.821Z,1.85
2023-03-27T18:42:48.687Z,1.84
2023-03-27T18:43:01.385Z,1.83
2023-03-27T18:43:14.165Z,1.82
2023-03-27T18:43:27.024Z,1.82
2023-03-27T18:43:41.312Z,1.82
2023-03-27T18:43:54.040Z,1.80
2023-03-27T18:44:07.026Z,1.81
2023-03-27T18:44:21.519Z,1.81
2023-03-27T18:44:34.964Z,1.79
2023-03-27T18:44:48.622Z,1.79
2023-03-27T18:45:01.319Z,1.79
2023-03-27T18:45:15.588Z,1.78
2023-03-27T18:45:28.317Z,1.77
2023-03-27T18:45:41.000Z,1.77
2023-03-27T18:45:57.526Z,1.76
2023-03-27T18:46:16.536Z,1.75
2023-03-27T18:46:29.664Z,1.76
2023-03-27T18:46:42.463Z,1.75
2023-03-27T18:46:55.080Z,1.74
2023-03-27T18:47:07.892Z,1.72
2023-03-27T18:47:21.684Z,1.71
2023-03-27T18:47:36.254Z,1.71
2023-03-27T18:47:49.221Z,1.69
2023-03-27T18:48:01.978Z,1.69
2023-03-27T18:48:16.391Z,1.69
2023-03-27T18:48:31.065Z,1.67
2023-03-27T18:48:49.010Z,1.65
2023-03-27T18:49:10.263Z,1.65
2023-03-27T18:49:30.452Z,1.63
2023-03-27T18:49:44.404Z,1.61
2023-03-27T18:49:57.665Z,1.60
2023-03-27T18:50:13.059Z,1.60
2023-03-27T18:50:26.129Z,1.58
2023-03-27T18:50:39.231Z,1.57
2023-03-27T18:50:55.189Z,1.54
2023-03-27T18:51:07.874Z,1.54
2023-03-27T18:51:23.958Z,1.52
2023-03-27T18:51:36.835Z,1.51
2023-03-27T18:51:49.437Z,1.51
2023-03-27T18:52:02.110Z,1.50
2023-03-27T18:52:14.904Z,1.49
2023-03-27T18:52:28.161Z,1.49
2023-03-27T18:52:42.512Z,1.49
2023-03-27T18:52:55.358Z,1.47
2023-03-27T18:53:08.338Z,1.46
2023-03-27T18:53:21.064Z,1.46
2023-03-27T18:53:33.749Z,1.45
2023-03-27T18:53:47.669Z,1.44
2023-03-27T18:54:00.791Z,1.44
2023-03-27T18:54:13.617Z,1.43
2023-03-27T18:54:26.519Z,1.43
2023-03-27T18:54:39.880Z,1.40
2023-03-27T18:54:52.639Z,1.37
2023-03-27T18:55:08.660Z,1.37
2023-03-27T18:55:21.265Z,1.37
2023-03-27T18:55:33.949Z,1.36
2023-03-27T18:55:48.893Z,1.34
2023-03-27T18:56:02.095Z,1.29
2023-03-27T18:56:15.122Z,1.31
2023-03-27T18:56:27.932Z,1.29
2023-03-27T18:56:41.585Z,1.29
2023-03-27T18:56:54.433Z,1.28
2023-03-27T18:57:07.278Z,1.27
2023-03-27T18:57:20.213Z,1.27
2023-03-27T18:57:34.351Z,1.25
2023-03-27T18:57:48.013Z,1.23
2023-03-27T18:58:00.767Z,1.24
2023-03-27T18:58:14.536Z,1.23
2023-03-27T18:58:28.487Z,1.22
2023-03-27T18:58:42.211Z,1.22
2023-03-27T18:58:55.349Z,1.20
2023-03-27T18:59:11.153Z,1.19
2023-03-27T18:59:23.830Z,1.18
2023-03-27T18:59:36.491Z,1.16
2023-03-27T18:59:50.344Z,1.13
2023-03-27T19:00:06.697Z,1.11
2023-03-27T19:00:20.727Z,1.06
2023-03-27T19:00:33.456Z,1.05
2023-03-27T19:00:46.481Z,1.04
2023-03-27T19:01:00.016Z,1.01
2023-03-27T19:01:12.940Z,1.01
2023-03-27T19:01:26.905Z,1.00
2023-03-27T19:01:39.687Z,0.97
2023-03-27T19:01:52.419Z,0.94
2023-03-27T19:02:05.167Z,0.94
2023-03-27T19:02:18.301Z,0.94
2023-03-27T19:02:32.271Z,0.93
2023-03-27T19:02:47.998Z,0.91
2023-03-27T19:03:00.991Z,0.90
2023-03-27T19:03:15.536Z,0.88
2023-03-27T19:03:36.377Z,0.85
2023-03-27T19:03:51.789Z,0.83
2023-03-27T19:04:06.272Z,0.83
2023-03-27T19:04:19.205Z,0.82
2023-03-27T19:04:31.784Z,0.81
2023-03-27T19:04:45.406Z,0.81
2023-03-27T19:04:58.008Z,0.81
2023-03-27T19:05:10.932Z,0.79
2023-03-27T19:05:24.594Z,0.78
2023-03-27T19:05:37.250Z,0.79
2023-03-27T19:05:51.265Z,0.79
2023-03-27T19:06:06.697Z,0.77
2023-03-27T19:06:19.726Z,0.78
2023-03-27T19:06:33.352Z,0.77
2023-03-27T19:06:47.393Z,0.77
2023-03-27T19:07:00.043Z,0.77
2023-03-27T19:07:13.891Z,0.76
2023-03-27T19:07:27.288Z,0.76
2023-03-27T19:07:44.946Z,0.75
2023-03-27T19:07:59.449Z,0.73
2023-03-27T19:08:13.256Z,0.76
2023-03-27T19:08:25.932Z,0.75
2023-03-27T19:08:42.013Z,0.74
2023-03-27T19:08:54.637Z,0.74
2023-03-27T19:09:07.528Z,0.75
2023-03-27T19:09:23.494Z,0.74
2023-03-27T19:09:46.099Z,0.74
2023-03-27T19:09:58.924Z,0.72
2023-03-27T19:10:11.640Z,0.72
2023-03-27T19:10:24.864Z,0.72
2023-03-27T19:10:38.243Z,0.72
2023-03-27T19:10:52.602Z,0.71
2023-03-27T19:11:06.615Z,0.72
2023-03-27T19:11:19.600Z,0.72
2023-03-27T19:11:33.548Z,0.72
2023-03-27T19:11:47.472Z,0.71
2023-03-27T19:12:00.758Z,0.72
2023-03-27T19:12:13.595Z,0.72
2023-03-27T19:12:27.252Z,0.71
2023-03-27T19:12:39.922Z,0.70
2023-03-27T19:12:53.277Z,0.70
2023-03-27T19:13:08.483Z,0.69
2023-03-27T19:13:22.413Z,0.69
2023-03-27T19:13:35.378Z,0.70
2023-03-27T19:13:48.159Z,0.70
2023-03-27T19:14:01.891Z,0.70
2023-03-27T19:14:14.791Z,0.70
2023-03-27T19:14:27.864Z,0.69
2023-03-27T19:14:41.637Z,0.70
2023-03-27T19:14:54.391Z,0.70
2023-03-27T19:15:19.225Z,0.70
2023-03-27T19:15:34.249Z,0.70
2023-03-27T19:15:49.102Z,0.70
2023-03-27T19:16:02.033Z,0.70
2023-03-27T19:16:27.693Z,0.70
2023-03-27T19:16:40.855Z,0.69
2023-03-27T19:16:55.249Z,0.67
2023-03-27T19:17:08.000Z,0.69
2023-03-27T19:17:21.153Z,0.68
2023-03-27T19:17:33.833Z,0.67
2023-03-27T19:17:46.736Z,0.69
2023-03-27T19:17:59.383Z,0.68
2023-03-27T19:18:13.346Z,0.67
2023-03-27T19:18:29.955Z,0.66
2023-03-27T19:18:42.630Z,0.68
2023-03-27T19:18:56.863Z,0.68
2023-03-27T19:19:09.974Z,0.68
2023-03-27T19:19:22.923Z,0.67
2023-03-27T19:19:35.545Z,0.67
2023-03-27T19:19:48.353Z,0.67
2023-03-27T19:20:02.061Z,0.66
2023-03-27T19:20:15.347Z,0.66
2023-03-27T19:20:28.454Z,0.68
2023-03-27T19:20:43.806Z,0.66
2023-03-27T19:20:57.031Z,0.66
2023-03-27T19:21:09.897Z,0.66
2023-03-27T19:21:24.390Z,0.68
2023-03-27T19:21:37.065Z,0.67
2023-03-27T19:21:50.223Z,0.68
2023-03-27T19:22:05.912Z,0.66
2023-03-27T19:22:18.662Z,0.68
2023-03-27T19:22:32.241Z,0.67
2023-03-27T19:22:44.876Z,0.68
2023-03-27T19:22:57.502Z,0.68
2023-03-27T19:23:10.281Z,0.66
2023-03-27T19:23:23.108Z,0.66
2023-03-27T19:23:36.048Z,0.67
2023-03-27T19:23:49.733Z,0.66
2023-03-27T19:24:02.424Z,0.66
2023-03-27T19:24:15.459Z,0.65
2023-03-27T19:24:28.128Z,0.67
2023-03-27T19:24:41.291Z,0.65
2023-03-27T19:24:53.893Z,0.65
2023-03-27T19:25:09.232Z,0.65
2023-03-27T19:25:22.073Z,0.64
2023-03-27T19:25:35.392Z,0.62
2023-03-27T19:25:49.038Z,0.63
2023-03-27T19:26:07.463Z,0.59
2023-03-27T19:26:21.271Z,0.61
2023-03-27T19:26:34.220Z,0.60
2023-03-27T19:26:46.920Z,0.58
2023-03-27T19:26:59.630Z,0.61
2023-03-27T19:27:24.186Z,0.58
2023-03-27T19:27:38.972Z,0.54
2023-03-27T19:27:53.149Z,0.54
2023-03-27T19:28:06.828Z,0.54
2023-03-27T19:28:20.435Z,0.53
2023-03-27T19:28:33.056Z,0.51
2023-03-27T19:28:47.689Z,0.50
2023-03-27T19:29:01.469Z,0.50
2023-03-27T19:29:14.266Z,0.50
2023-03-27T19:29:28.676Z,0.51
2023-03-27T19:29:41.461Z,0.50
2023-03-27T19:29:54.374Z,0.51
2023-03-27T19:30:11.250Z,0.49
2023-03-27T19:30:25.416Z,0.49
2023-03-27T19:30:38.252Z,0.49
2023-03-27T19:30:52.914Z,0.48
2023-03-27T19:31:07.583Z,0.49
2023-03-27T19:31:20.899Z,0.49
2023-03-27T19:31:33.770Z,0.49
2023-03-27T19:31:47.600Z,0.49
2023-03-27T19:32:00.503Z,0.46
2023-03-27T19:32:13.173Z,0.41
2023-03-27T19:32:25.924Z,0.46
2023-03-27T19:32:39.318Z,0.45
2023-03-27T19:32:52.367Z,0.43
2023-03-27T19:33:06.329Z,0.43
2023-03-27T19:33:19.382Z,0.42
2023-03-27T19:33:32.358Z,0.41
2023-03-27T19:33:45.799Z,0.41
2023-03-27T19:34:01.903Z,0.40
2023-03-27T19:34:14.716Z,0.41
2023-03-27T19:34:44.708Z,0.39
2023-03-27T19:34:57.453Z,0.38
2023-03-27T19:35:10.179Z,0.38
2023-03-27T19:35:22.856Z,0.37
2023-03-27T19:35:35.618Z,0.36
2023-03-27T19:35:53.599Z,0.34
2023-03-27T19:36:07.490Z,0.33
2023-03-27T19:36:20.191Z,0.32
2023-03-27T19:36:33.429Z,0.31
2023-03-27T19:36:46.415Z,0.31
2023-03-27T19:37:00.406Z,0.30
2023-03-27T19:37:13.076Z,0.31
2023-03-27T19:37:25.878Z,0.30
2023-03-27T19:37:38.463Z,0.30
2023-03-27T19:37:51.152Z,0.30
2023-03-27T19:38:04.896Z,0.30
2023-03-27T19:38:17.546Z,0.30
2023-03-27T19:38:30.513Z,0.30
2023-03-27T19:38:43.232Z,0.29
2023-03-27T19:38:55.936Z,0.30
2023-03-27T19:39:09.522Z,0.29
2023-03-27T19:39:22.193Z,0.29
2023-03-27T19:39:34.995Z,0.29
2023-03-27T19:39:47.652Z,0.29
2023-03-27T19:40:00.377Z,0.30
2023-03-27T19:40:14.298Z,0.30
2023-03-27T19:40:27.975Z,0.28
2023-03-27T19:40:41.026Z,0.30
2023-03-27T19:40:54.246Z,0.29
2023-03-27T19:41:10.937Z,0.30
2023-03-27T19:41:23.586Z,0.29
2023-03-27T19:41:37.223Z,0.29
2023-03-27T19:41:49.844Z,0.27
2023-03-27T19:42:02.483Z,0.25
2023-03-27T19:42:15.118Z,0.25
2023-03-27T19:42:28.608Z,0.25
2023-03-27T19:42:41.638Z,0.22
2023-03-27T19:42:55.471Z,0.20
2023-03-27T19:43:08.117Z,0.20
2023-03-27T19:43:21.599Z,0.19
2023-03-27T19:43:34.822Z,0.18
2023-03-27T19:43:47.507Z,0.17
2023-03-27T19:44:00.599Z,0.18
2023-03-27T19:44:15.903Z,0.14
2023-03-27T19:44:29.743Z,0.11
2023-03-27T19:44:42.627Z,0.09
2023-03-27T19:44:55.296Z,0.07
2023-03-27T19:45:09.037Z,0.06
2023-03-27T19:45:21.699Z,0.05
2023-03-27T19:45:35.367Z,0.05
2023-03-27T19:46:01.165Z,0.04
2023-03-27T19:46:23.221Z,0.02
2023-03-27T19:46:36.606Z,0.01
2023-03-27T19:46:50.505Z,0.00
2023-03-27T19:47:03.758Z,-0.01
2023-03-27T19:47:16.634Z,-0.04
2023-03-27T19:47:29.347Z,-0.05
2023-03-27T19:47:42.876Z,-0.06
2023-03-27T19:47:56.278Z,-0.09
2023-03-27T19:48:09.031Z,-0.11
2023-03-27T19:48:22.970Z,-0.12
2023-03-27T19:48:36.344Z,-0.14
2023-03-27T19:48:49.688Z,-0.14
2023-03-27T19:49:04.244Z,-0.15
2023-03-27T19:49:17.006Z,-0.16
2023-03-27T19:49:29.580Z,-0.15
2023-03-27T19:49:42.691Z,-0.16
2023-03-27T19:49:56.287Z,-0.15
2023-03-27T19:50:11.681Z,-0.15
2023-03-27T19:50:24.306Z,-0.16
2023-03-27T19:50:37.192Z,-0.16
2023-03-27T19:50:50.879Z,-0.15
2023-03-27T19:51:04.708Z,-0.15